Time;durP1;ratioP1;P1;durP2;ratioP2;P2;SDS_P1;SDS_P2;PMS_P1;PMS_P2;Temp;Humidity;BMP_temperature;BMP_pressure;BME280_temperature;BME280_humidity;BME280_pressure;Samples;Min_cycle;Max_cycle;Signal;HPM_P1;HPM_P2
2024/01/07 00:00:23;;;;;;;15.83;15.23;;;6.30;99.90;;;;;;5109746;28;20206;-65
2024/01/07 00:02:50;;;;;;;16.17;15.57;;;6.30;99.90;;;;;;5112982;28;20312;-63
2024/01/07 00:05:18;;;;;;;15.63;15.03;;;6.20;99.90;;;;;;5115770;27;20687;-63
2024/01/07 00:07:45;;;;;;;15.57;15.00;;;6.30;99.90;;;;;;5116854;27;20202;-65
2024/01/07 00:10:12;;;;;;;15.53;14.93;;;6.30;99.90;;;;;;5112829;27;20230;-62
2024/01/07 00:12:39;;;;;;;15.70;15.10;;;6.30;99.90;;;;;;5114225;27;20264;-63
2024/01/07 00:15:06;;;;;;;15.97;15.37;;;6.20;99.90;;;;;;5112800;28;20207;-63
2024/01/07 00:17:33;;;;;;;15.20;14.60;;;6.20;99.90;;;;;;5113198;28;20676;-63
2024/01/07 00:20:00;;;;;;;14.67;14.17;;;6.20;99.90;;;;;;5113727;28;20668;-63
2024/01/07 00:22:28;;;;;;;15.17;14.63;;;6.10;99.90;;;;;;5114563;28;20222;-63
2024/01/07 00:24:55;;;;;;;14.87;14.37;;;6.00;99.90;;;;;;5113448;28;20229;-63
2024/01/07 00:27:22;;;;;;;15.33;14.80;;;6.00;99.90;;;;;;5116386;27;20204;-64
2024/01/07 00:29:49;;;;;;;14.90;14.40;;;5.90;99.90;;;;;;5115257;27;20209;-63
2024/01/07 00:32:15;;;;;;;14.60;14.10;;;5.90;99.90;;;;;;5109193;28;20236;-63
2024/01/07 00:34:42;;;;;;;14.60;14.10;;;5.90;99.90;;;;;;5114901;28;20217;-63
2024/01/07 00:37:09;;;;;;;14.93;14.43;;;5.80;99.90;;;;;;5117284;27;20959;-63
2024/01/07 00:39:37;;;;;;;14.60;14.10;;;5.80;99.90;;;;;;5112158;27;20210;-63
2024/01/07 00:42:04;;;;;;;14.10;13.60;;;5.80;99.90;;;;;;5116863;28;20218;-62
2024/01/07 00:44:31;;;;;;;14.53;14.03;;;5.90;99.90;;;;;;5122698;27;20570;-62
2024/01/07 00:46:58;;;;;;;15.73;15.13;;;5.90;99.90;;;;;;5117686;27;20198;-63
2024/01/07 00:49:25;;;;;;;15.07;14.47;;;5.90;99.90;;;;;;5115088;28;20661;-62
2024/01/07 00:51:51;;;;;;;15.90;15.30;;;5.90;99.90;;;;;;5111447;28;20225;-63
2024/01/07 00:54:18;;;;;;;15.10;14.50;;;5.80;99.90;;;;;;5112163;28;20598;-62
2024/01/07 00:56:46;;;;;;;15.23;14.70;;;5.80;99.90;;;;;;5111311;28;20209;-64
2024/01/07 00:59:13;;;;;;;15.53;14.93;;;5.70;99.90;;;;;;5113087;28;20198;-64
2024/01/07 01:01:40;;;;;;;15.27;14.70;;;5.70;99.90;;;;;;5109598;28;20781;-64
2024/01/07 01:04:07;;;;;;;15.37;14.83;;;5.70;99.90;;;;;;5112383;27;20203;-63
2024/01/07 01:06:34;;;;;;;15.40;14.80;;;5.70;99.90;;;;;;5113740;28;20232;-62
2024/01/07 01:09:00;;;;;;;14.77;14.27;;;5.70;99.90;;;;;;5111678;28;20258;-62
2024/01/07 01:11:27;;;;;;;14.50;14.00;;;5.70;99.90;;;;;;5112924;28;20682;-63
2024/01/07 01:13:55;;;;;;;14.27;13.77;;;5.70;99.90;;;;;;5109182;28;20222;-64
2024/01/07 01:16:23;;;;;;;14.30;13.80;;;5.70;99.90;;;;;;5115150;27;20194;-62
2024/01/07 01:18:50;;;;;;;14.07;13.57;;;5.70;99.90;;;;;;5109590;28;20214;-63
2024/01/07 01:21:17;;;;;;;14.87;14.33;;;5.70;99.90;;;;;;5115199;27;20228;-63
2024/01/07 01:23:45;;;;;;;14.33;13.83;;;5.70;99.90;;;;;;5111125;28;20221;-61
2024/01/07 01:26:12;;;;;;;14.53;13.93;;;5.70;99.90;;;;;;5114728;27;20209;-62
2024/01/07 01:28:38;;;;;;;14.00;13.50;;;5.70;99.90;;;;;;5121996;27;20235;-62
2024/01/07 01:31:06;;;;;;;14.37;13.87;;;5.60;99.90;;;;;;5112255;27;20206;-62
2024/01/07 01:33:33;;;;;;;14.37;13.87;;;5.60;99.90;;;;;;5111992;28;20229;-63
2024/01/07 01:36:00;;;;;;;14.53;14.03;;;5.60;99.90;;;;;;5117349;27;20209;-63
2024/01/07 01:38:26;;;;;;;14.30;13.80;;;5.70;99.90;;;;;;5116859;27;20206;-62
2024/01/07 01:40:53;;;;;;;14.73;14.23;;;5.60;99.90;;;;;;5114135;28;20569;-63
2024/01/07 01:43:24;;;;;;;14.57;14.07;;;5.60;99.90;;;;;;5113357;27;20218;-62
2024/01/07 01:45:51;;;;;;;15.20;14.60;;;5.70;99.90;;;;;;5113791;27;20577;-65
2024/01/07 01:48:19;;;;;;;14.87;14.37;;;5.70;99.90;;;;;;5111048;28;20474;-64
2024/01/07 01:50:47;;;;;;;14.80;14.30;;;5.70;99.90;;;;;;5111980;27;20198;-62
2024/01/07 01:53:14;;;;;;;14.23;13.73;;;5.80;99.90;;;;;;5110454;28;20236;-63
2024/01/07 01:55:41;;;;;;;14.87;14.37;;;5.80;99.90;;;;;;5110178;27;20209;-65
2024/01/07 01:58:10;;;;;;;14.60;14.10;;;5.80;99.90;;;;;;5108149;27;20199;-62
2024/01/07 02:00:37;;;;;;;14.97;14.47;;;5.80;99.90;;;;;;5113264;27;20202;-63
2024/01/07 02:03:04;;;;;;;14.63;14.13;;;5.80;99.90;;;;;;5113859;27;20234;-63
2024/01/07 02:05:32;;;;;;;16.10;15.50;;;5.80;99.90;;;;;;5117738;27;20219;-63
2024/01/07 02:08:00;;;;;;;15.30;14.70;;;5.80;99.90;;;;;;5112362;27;20217;-63
2024/01/07 02:10:28;;;;;;;15.20;14.60;;;5.80;99.90;;;;;;5111483;28;20201;-63
2024/01/07 02:12:55;;;;;;;14.97;14.47;;;5.80;99.90;;;;;;5111346;28;20234;-63
2024/01/07 02:15:22;;;;;;;16.27;15.67;;;5.80;99.90;;;;;;5110408;28;20209;-63
2024/01/07 02:17:48;;;;;;;14.27;13.77;;;5.80;99.90;;;;;;5109898;28;20218;-64
2024/01/07 02:20:15;;;;;;;14.30;13.80;;;5.80;99.90;;;;;;5111710;28;20664;-63
2024/01/07 02:22:43;;;;;;;14.73;14.23;;;5.80;99.90;;;;;;5111429;28;20222;-63
2024/01/07 02:25:11;;;;;;;14.90;14.37;;;5.70;99.90;;;;;;5109296;28;20212;-63
2024/01/07 02:27:38;;;;;;;14.57;14.07;;;5.70;99.90;;;;;;5110264;28;20217;-64
2024/01/07 02:30:06;;;;;;;15.20;14.60;;;5.80;99.90;;;;;;5110600;28;20588;-64
2024/01/07 02:32:35;;;;;;;14.63;14.13;;;5.80;99.90;;;;;;5110134;28;20222;-65
2024/01/07 02:35:01;;;;;;;15.60;15.00;;;5.70;99.90;;;;;;5110681;28;20226;-62
2024/01/07 02:37:28;;;;;;;14.80;14.30;;;5.70;99.90;;;;;;5110534;28;20318;-62
2024/01/07 02:39:55;;;;;;;14.70;14.20;;;5.70;99.90;;;;;;5110091;28;20201;-62
2024/01/07 02:42:23;;;;;;;14.23;13.73;;;5.70;99.90;;;;;;5108230;28;20232;-64
2024/01/07 02:44:49;;;;;;;14.63;14.13;;;5.70;99.90;;;;;;5110240;28;20209;-63
2024/01/07 02:47:16;;;;;;;14.90;14.37;;;5.70;99.90;;;;;;5106437;28;20217;-64
2024/01/07 02:49:43;;;;;;;14.73;14.23;;;5.80;99.90;;;;;;5110986;28;20206;-64
2024/01/07 02:52:10;;;;;;;16.07;15.47;;;5.90;99.90;;;;;;5107191;28;20237;-65
2024/01/07 02:54:36;;;;;;;15.53;14.97;;;5.90;99.90;;;;;;5110078;28;20688;-63
2024/01/07 02:57:03;;;;;;;15.27;14.67;;;5.90;99.90;;;;;;5108864;28;20214;-63
2024/01/07 02:59:31;;;;;;;16.40;15.60;;;6.00;99.90;;;;;;5109274;28;20213;-64
2024/01/07 03:01:58;;;;;;;15.93;15.33;;;6.00;99.90;;;;;;5109221;28;20317;-62
2024/01/07 03:04:25;;;;;;;15.57;14.97;;;6.00;99.90;;;;;;5109944;28;20202;-65
2024/01/07 03:06:51;;;;;;;16.27;15.67;;;6.00;99.90;;;;;;5107001;28;20700;-64
2024/01/07 03:09:18;;;;;;;16.17;15.57;;;5.90;99.90;;;;;;5110095;28;20206;-63
2024/01/07 03:11:45;;;;;;;15.70;15.10;;;5.90;99.90;;;;;;5109577;28;20230;-63
2024/01/07 03:14:12;;;;;;;14.87;14.33;;;5.80;99.90;;;;;;5109570;28;20214;-65
2024/01/07 03:16:40;;;;;;;15.33;14.73;;;5.80;99.90;;;;;;5108521;28;20197;-63
2024/01/07 03:19:06;;;;;;;14.77;14.27;;;5.80;99.90;;;;;;5110072;28;20579;-63
2024/01/07 03:21:33;;;;;;;15.50;14.90;;;5.80;99.90;;;;;;5107093;28;20207;-63
2024/01/07 03:24:00;;;;;;;15.43;14.83;;;5.80;99.90;;;;;;5108145;28;20205;-63
2024/01/07 03:26:32;;;;;;;15.20;14.70;;;5.90;99.90;;;;;;5110828;28;20213;-65
2024/01/07 03:28:59;;;;;;;14.83;14.30;;;5.90;99.90;;;;;;5105018;28;20209;-64
2024/01/07 03:31:27;;;;;;;15.00;14.50;;;5.90;99.90;;;;;;5110050;28;20298;-65
2024/01/07 03:33:55;;;;;;;15.10;14.53;;;6.00;99.90;;;;;;5109732;28;20221;-63
2024/01/07 03:36:22;;;;;;;15.17;14.60;;;5.90;99.90;;;;;;5112204;28;20687;-63
2024/01/07 03:38:49;;;;;;;15.63;15.03;;;5.80;99.90;;;;;;5116685;28;20201;-63
2024/01/07 03:41:18;;;;;;;15.00;14.50;;;5.80;99.90;;;;;;5110707;28;20580;-63
2024/01/07 03:43:44;;;;;;;15.37;14.77;;;5.70;99.90;;;;;;5115257;28;20769;-63
2024/01/07 03:46:11;;;;;;;14.57;14.07;;;5.70;99.90;;;;;;5111876;28;20213;-63
2024/01/07 03:48:38;;;;;;;15.73;15.13;;;5.80;99.90;;;;;;5111502;28;20228;-64
2024/01/07 03:51:06;;;;;;;15.27;14.67;;;5.70;99.90;;;;;;5105212;28;20202;-64
2024/01/07 03:53:33;;;;;;;15.27;14.67;;;5.70;99.90;;;;;;5113977;28;20230;-63
2024/01/07 03:56:00;;;;;;;14.73;14.23;;;5.70;99.90;;;;;;5117893;28;20201;-65
2024/01/07 03:58:27;;;;;;;14.47;13.87;;;5.70;99.90;;;;;;5104156;28;20210;-62
2024/01/07 04:00:53;;;;;;;14.90;14.33;;;5.70;99.90;;;;;;5109287;28;20213;-63
2024/01/07 04:03:20;;;;;;;15.17;14.57;;;5.70;99.90;;;;;;5112108;28;20225;-63
2024/01/07 04:05:47;;;;;;;14.47;13.97;;;5.70;99.90;;;;;;5113662;28;20223;-62
2024/01/07 04:08:16;;;;;;;15.10;14.57;;;5.80;99.90;;;;;;5113894;28;20210;-64
2024/01/07 04:10:42;;;;;;;14.73;14.23;;;5.70;99.90;;;;;;5112874;28;20270;-63
2024/01/07 04:13:09;;;;;;;15.23;14.63;;;5.70;99.90;;;;;;5124986;28;20233;-63
2024/01/07 04:15:36;;;;;;;15.93;15.33;;;5.70;99.90;;;;;;5116529;28;20663;-64
2024/01/07 04:18:03;;;;;;;14.80;14.30;;;5.70;99.90;;;;;;5119095;28;20210;-63
2024/01/07 04:20:30;;;;;;;14.87;14.37;;;5.80;99.90;;;;;;5121581;28;20201;-63
2024/01/07 04:22:57;;;;;;;14.90;14.40;;;5.80;99.90;;;;;;5120263;27;20225;-62
2024/01/07 04:25:25;;;;;;;15.53;14.93;;;5.70;99.90;;;;;;5119445;27;20206;-63
2024/01/07 04:27:52;;;;;;;13.83;13.33;;;5.70;99.90;;;;;;5114506;27;20579;-63
2024/01/07 04:30:19;;;;;;;14.53;14.03;;;5.70;99.90;;;;;;5119742;27;20202;-63
2024/01/07 04:32:45;;;;;;;14.53;14.03;;;5.70;99.90;;;;;;5115606;28;20240;-62
2024/01/07 04:35:12;;;;;;;14.33;13.83;;;5.70;99.90;;;;;;5110319;28;20218;-63
2024/01/07 04:37:39;;;;;;;14.57;14.07;;;5.70;99.90;;;;;;5111877;28;20205;-63
2024/01/07 04:40:07;;;;;;;14.23;13.73;;;5.70;99.90;;;;;;5113420;27;20202;-64
2024/01/07 04:42:35;;;;;;;14.23;13.73;;;5.60;99.90;;;;;;5110705;28;20282;-63
2024/01/07 04:45:02;;;;;;;15.07;14.57;;;5.60;99.90;;;;;;5107484;28;20204;-63
2024/01/07 04:47:31;;;;;;;14.90;14.40;;;5.60;99.90;;;;;;5109765;27;20202;-63
2024/01/07 04:49:58;;;;;;;14.80;14.30;;;5.60;99.90;;;;;;5110474;27;20205;-62
2024/01/07 04:52:25;;;;;;;14.53;14.03;;;5.60;99.90;;;;;;5115567;27;20226;-63
2024/01/07 04:54:52;;;;;;;14.17;13.67;;;5.60;99.90;;;;;;5114627;27;20249;-63
2024/01/07 04:57:19;;;;;;;14.20;13.70;;;5.60;99.90;;;;;;5110093;27;20204;-63
2024/01/07 04:59:48;;;;;;;14.23;13.73;;;5.60;99.90;;;;;;5117420;27;20202;-63
2024/01/07 05:02:15;;;;;;;13.63;13.13;;;5.60;99.90;;;;;;5104455;28;20258;-63
2024/01/07 05:04:42;;;;;;;13.30;12.80;;;5.70;99.90;;;;;;5113908;27;20193;-64
2024/01/07 05:07:09;;;;;;;14.60;14.00;;;5.80;99.90;;;;;;5104148;28;20206;-63
2024/01/07 05:09:36;;;;;;;14.53;14.03;;;5.90;99.90;;;;;;5109418;28;20210;-63
2024/01/07 05:12:03;;;;;;;14.43;13.93;;;5.80;99.90;;;;;;5112019;27;20221;-64
2024/01/07 05:14:30;;;;;;;13.97;13.47;;;5.70;99.90;;;;;;5114256;27;20262;-64
2024/01/07 05:16:58;;;;;;;14.50;13.93;;;5.80;99.90;;;;;;5111113;27;20217;-64
2024/01/07 05:19:25;;;;;;;15.17;14.63;;;5.80;99.90;;;;;;5116483;27;20214;-63
2024/01/07 05:21:51;;;;;;;16.20;15.60;;;5.70;99.90;;;;;;5111426;27;20213;-65
2024/01/07 05:24:18;;;;;;;15.27;14.77;;;5.70;99.90;;;;;;5112879;27;20206;-64
2024/01/07 05:26:45;;;;;;;15.63;15.03;;;5.70;99.90;;;;;;5112626;27;20208;-64
2024/01/07 05:29:13;;;;;;;14.87;14.27;;;5.70;99.90;;;;;;5105344;28;20536;-64
2024/01/07 05:31:40;;;;;;;15.43;14.87;;;5.70;99.90;;;;;;5110838;28;20201;-64
2024/01/07 05:34:08;;;;;;;15.70;15.10;;;5.70;99.90;;;;;;5105949;27;20226;-63
2024/01/07 05:36:35;;;;;;;16.00;15.40;;;5.70;99.90;;;;;;5110804;28;20217;-63
2024/01/07 05:39:02;;;;;;;16.17;15.57;;;5.60;99.90;;;;;;5108722;28;20277;-63
2024/01/07 05:41:29;;;;;;;14.97;14.37;;;5.60;99.90;;;;;;5117124;27;20769;-64
2024/01/07 05:43:55;;;;;;;15.00;14.40;;;5.60;99.90;;;;;;5114272;27;20206;-62
2024/01/07 05:46:22;;;;;;;15.10;14.50;;;5.60;99.90;;;;;;5106687;27;20205;-63
2024/01/07 05:48:50;;;;;;;14.63;14.13;;;5.60;99.90;;;;;;5106810;28;20206;-62
2024/01/07 05:51:18;;;;;;;14.10;13.60;;;5.60;99.90;;;;;;5112502;27;20208;-64
2024/01/07 05:53:45;;;;;;;14.03;13.53;;;5.50;99.90;;;;;;5105918;28;20229;-63
2024/01/07 05:56:12;;;;;;;13.97;13.47;;;5.50;99.90;;;;;;5107905;28;20206;-62
2024/01/07 05:58:39;;;;;;;13.73;13.23;;;5.50;99.90;;;;;;5116349;27;20251;-63
2024/01/07 06:01:07;;;;;;;14.33;13.83;;;5.60;99.90;;;;;;5108521;28;20574;-64
2024/01/07 06:03:34;;;;;;;14.30;13.80;;;5.60;99.90;;;;;;5105539;28;20248;-63
2024/01/07 06:06:01;;;;;;;14.33;13.83;;;5.60;99.90;;;;;;5111660;27;20206;-63
2024/01/07 06:08:29;;;;;;;14.70;14.20;;;5.60;99.90;;;;;;5108459;27;20289;-63
2024/01/07 06:10:56;;;;;;;14.80;14.30;;;5.60;99.90;;;;;;5109348;28;20202;-63
2024/01/07 06:13:22;;;;;;;14.83;14.33;;;5.70;99.90;;;;;;5111063;28;20226;-63
2024/01/07 06:15:49;;;;;;;14.97;14.43;;;5.70;99.90;;;;;;5111273;27;20225;-65
2024/01/07 06:18:16;;;;;;;14.37;13.87;;;5.70;99.90;;;;;;5112015;27;20590;-63
2024/01/07 06:20:42;;;;;;;15.33;14.73;;;5.70;99.90;;;;;;5107185;28;20217;-64
2024/01/07 06:23:09;;;;;;;14.63;14.13;;;5.70;99.90;;;;;;5107289;28;20229;-65
2024/01/07 06:25:37;;;;;;;15.83;15.23;;;5.70;99.90;;;;;;5107157;28;20685;-63
2024/01/07 06:28:04;;;;;;;14.47;13.97;;;5.80;99.90;;;;;;5113118;27;20209;-63
2024/01/07 06:30:31;;;;;;;14.87;14.27;;;5.90;99.90;;;;;;5112940;28;20559;-63
2024/01/07 06:32:58;;;;;;;14.33;13.83;;;5.90;99.90;;;;;;5116322;27;20245;-61
2024/01/07 06:35:24;;;;;;;15.43;14.83;;;5.90;99.90;;;;;;5111375;28;20609;-64
2024/01/07 06:37:52;;;;;;;14.60;14.10;;;5.90;99.90;;;;;;5111466;27;20669;-64
2024/01/07 06:40:18;;;;;;;14.00;13.50;;;5.90;99.90;;;;;;5112249;28;20225;-62
2024/01/07 06:42:48;;;;;;;14.93;14.33;;;5.80;99.90;;;;;;5116080;28;20333;-63
2024/01/07 06:45:15;;;;;;;14.20;13.63;;;5.80;99.90;;;;;;5108655;28;20222;-63
2024/01/07 06:47:42;;;;;;;13.80;13.30;;;5.80;99.90;;;;;;5117662;28;20210;-65
2024/01/07 06:50:10;;;;;;;15.03;14.53;;;5.70;99.90;;;;;;5120440;28;20212;-64
2024/01/07 06:52:37;;;;;;;15.13;14.53;;;5.70;99.90;;;;;;5121773;27;20225;-64
2024/01/07 06:55:04;;;;;;;15.80;15.20;;;5.60;99.90;;;;;;5118797;28;20313;-63
2024/01/07 06:57:31;;;;;;;15.10;14.50;;;5.60;99.90;;;;;;5123600;28;20202;-62
2024/01/07 06:59:59;;;;;;;15.27;14.67;;;5.60;99.90;;;;;;5124309;27;20207;-61
2024/01/07 07:02:25;;;;;;;14.90;14.40;;;5.60;99.90;;;;;;5119664;28;20221;-63
2024/01/07 07:04:52;;;;;;;14.93;14.40;;;5.50;99.90;;;;;;5117059;28;20201;-61
2024/01/07 07:07:19;;;;;;;15.27;14.67;;;5.50;99.90;;;;;;5114862;28;20210;-60
2024/01/07 07:09:45;;;;;;;14.67;14.07;;;5.50;99.90;;;;;;5108986;28;20209;-60
2024/01/07 07:12:13;;;;;;;15.47;14.87;;;5.50;99.90;;;;;;5107276;27;20577;-61
2024/01/07 07:14:40;;;;;;;15.03;14.43;;;5.50;99.90;;;;;;5122186;27;20229;-64
2024/01/07 07:17:08;;;;;;;15.33;14.73;;;5.40;99.90;;;;;;5114135;27;20259;-64
2024/01/07 07:19:35;;;;;;;14.93;14.40;;;5.40;99.90;;;;;;5117420;27;20205;-65
2024/01/07 07:22:02;;;;;;;15.03;14.43;;;5.40;99.90;;;;;;5115859;27;20213;-64
2024/01/07 07:24:28;;;;;;;15.30;14.70;;;5.50;99.90;;;;;;5112048;27;20202;-64
2024/01/07 07:26:55;;;;;;;15.53;14.93;;;5.50;99.90;;;;;;5106903;27;20229;-65
2024/01/07 07:29:23;;;;;;;15.00;14.40;;;5.50;99.90;;;;;;5111860;27;20561;-65
2024/01/07 07:31:50;;;;;;;14.97;14.37;;;5.40;99.90;;;;;;5117992;27;20233;-64
2024/01/07 07:34:19;;;;;;;15.30;14.70;;;5.50;99.90;;;;;;5117950;27;20550;-64
2024/01/07 07:36:46;;;;;;;15.23;14.63;;;5.50;99.90;;;;;;5111738;27;20205;-64
2024/01/07 07:39:14;;;;;;;14.48;13.98;;;5.40;99.90;;;;;;5116662;27;20205;-64
2024/01/07 07:41:40;;;;;;;15.30;14.70;;;5.40;99.90;;;;;;5107533;27;20206;-65
2024/01/07 07:44:07;;;;;;;15.50;14.90;;;5.50;99.90;;;;;;5107662;27;20228;-64
2024/01/07 07:46:34;;;;;;;15.60;15.00;;;5.40;99.90;;;;;;5113764;28;20217;-65
2024/01/07 07:49:01;;;;;;;15.90;15.30;;;5.50;99.90;;;;;;5110581;28;20209;-64
2024/01/07 07:51:30;;;;;;;16.25;15.50;;;5.40;99.90;;;;;;5115801;27;20228;-64
2024/01/07 07:53:57;;;;;;;15.50;14.90;;;5.40;99.90;;;;;;5116491;27;20289;-64
2024/01/07 07:56:24;;;;;;;17.03;16.33;;;5.40;99.90;;;;;;5111885;27;20605;-64
2024/01/07 07:58:50;;;;;;;15.87;15.23;;;5.40;99.90;;;;;;5107974;27;20206;-65
2024/01/07 08:01:19;;;;;;;16.60;15.90;;;5.30;99.90;;;;;;5112862;27;20205;-64
2024/01/07 08:03:45;;;;;;;15.90;15.20;;;5.30;99.90;;;;;;5114804;27;20381;-64
2024/01/07 08:06:12;;;;;;;15.93;15.30;;;5.40;99.90;;;;;;5109132;28;20213;-64
2024/01/07 08:08:40;;;;;;;17.57;16.87;;;5.40;99.90;;;;;;5110405;28;20289;-64
2024/01/07 08:11:09;;;;;;;17.00;16.30;;;5.50;99.90;;;;;;5110153;28;20598;-64
2024/01/07 08:13:37;;;;;;;17.27;16.57;;;5.50;99.90;;;;;;5110703;28;20234;-64
2024/01/07 08:16:05;;;;;;;16.80;16.10;;;5.50;99.90;;;;;;5109441;28;20552;-63
2024/01/07 08:18:31;;;;;;;16.93;16.23;;;5.50;99.90;;;;;;5115937;27;20213;-63
2024/01/07 08:20:58;;;;;;;16.50;15.80;;;5.40;99.90;;;;;;5110477;28;20206;-64
2024/01/07 08:23:25;;;;;;;16.70;16.00;;;5.50;99.90;;;;;;5110123;28;20222;-64
2024/01/07 08:25:53;;;;;;;17.00;16.30;;;5.40;99.90;;;;;;5111850;27;20202;-65
2024/01/07 08:28:20;;;;;;;16.43;15.73;;;5.40;99.90;;;;;;5117721;27;20202;-65
2024/01/07 08:30:47;;;;;;;16.90;16.20;;;5.40;99.90;;;;;;5126121;27;20228;-66
2024/01/07 08:33:14;;;;;;;17.37;16.67;;;5.40;99.90;;;;;;5114050;27;20226;-65
2024/01/07 08:35:41;;;;;;;17.60;16.90;;;5.50;99.90;;;;;;5116155;27;20222;-65
2024/01/07 08:38:08;;;;;;;17.97;17.03;;;5.50;99.90;;;;;;5118102;27;20231;-65
2024/01/07 08:40:35;;;;;;;17.13;16.37;;;5.50;99.90;;;;;;5112755;27;20850;-65
2024/01/07 08:43:03;;;;;;;16.40;15.70;;;5.50;99.90;;;;;;5111303;27;20233;-64
2024/01/07 08:45:30;;;;;;;17.67;16.90;;;5.60;99.90;;;;;;5112939;27;20194;-64
2024/01/07 08:47:57;;;;;;;17.47;16.77;;;5.50;99.90;;;;;;5116774;27;20213;-65
2024/01/07 08:50:23;;;;;;;16.33;15.63;;;5.60;99.90;;;;;;5113831;27;20210;-65
2024/01/07 08:52:50;;;;;;;16.47;15.70;;;5.60;99.90;;;;;;5119306;27;20221;-67
2024/01/07 08:55:17;;;;;;;15.48;14.88;;;5.60;99.90;;;;;;5110458;28;20218;-64
2024/01/07 08:57:48;;;;;;;15.27;14.68;;;5.70;99.90;;;;;;5114438;27;20210;-64
2024/01/07 09:00:18;;;;;;;14.90;14.30;;;5.70;99.90;;;;;;5117927;27;20228;-65
2024/01/07 09:02:44;;;;;;;14.93;14.32;;;5.70;99.90;;;;;;5114066;28;20221;-64
2024/01/07 09:05:12;;;;;;;15.57;14.98;;;5.70;99.90;;;;;;5114669;28;20206;-66
2024/01/07 09:07:39;;;;;;;13.97;13.47;;;5.80;99.90;;;;;;5117059;27;20210;-65
2024/01/07 09:10:10;;;;;;;15.40;14.80;;;5.80;99.90;;;;;;5117291;27;20637;-65
2024/01/07 09:12:37;;;;;;;14.55;13.95;;;5.80;99.90;;;;;;5112885;27;20258;-66
2024/01/07 09:15:06;;;;;;;14.40;13.83;;;5.80;99.90;;;;;;5112260;27;20208;-65
2024/01/07 09:17:34;;;;;;;14.63;14.13;;;5.70;99.90;;;;;;5108403;27;20535;-65
2024/01/07 09:20:01;;;;;;;14.77;14.17;;;5.70;99.90;;;;;;5115900;28;20198;-65
2024/01/07 09:22:27;;;;;;;13.85;13.35;;;5.80;99.90;;;;;;5112889;28;20688;-65
2024/01/07 09:24:54;;;;;;;13.97;13.47;;;5.90;99.90;;;;;;5111436;27;20198;-64
2024/01/07 09:27:21;;;;;;;13.50;13.00;;;6.00;99.90;;;;;;5110226;27;20657;-64
2024/01/07 09:29:47;;;;;;;15.00;14.40;;;5.90;99.90;;;;;;5106890;27;20206;-65
2024/01/07 09:32:14;;;;;;;16.13;15.53;;;5.90;99.90;;;;;;5111146;27;20233;-64
2024/01/07 09:34:43;;;;;;;14.82;14.27;;;5.90;99.90;;;;;;5108591;27;20209;-64
2024/01/07 09:37:10;;;;;;;14.80;14.20;;;5.90;99.90;;;;;;5111176;27;20222;-64
2024/01/07 09:39:39;;;;;;;15.80;15.20;;;5.90;99.90;;;;;;5111842;27;20209;-66
2024/01/07 09:42:08;;;;;;;14.90;14.37;;;5.90;99.90;;;;;;5117942;27;20911;-65
2024/01/07 09:44:35;;;;;;;14.77;14.17;;;5.90;99.90;;;;;;5112181;28;20263;-67
2024/01/07 09:47:02;;;;;;;15.40;14.80;;;6.00;99.90;;;;;;5108591;28;20199;-63
2024/01/07 09:49:29;;;;;;;14.00;13.50;;;5.90;99.90;;;;;;5110676;27;20202;-65
2024/01/07 09:52:00;;;;;;;13.93;13.43;;;6.00;99.90;;;;;;5107360;27;20637;-65
2024/01/07 09:54:28;;;;;;;13.77;13.27;;;6.10;99.90;;;;;;5113942;27;20203;-66
2024/01/07 09:56:59;;;;;;;13.30;12.80;;;6.20;99.90;;;;;;5111233;27;20222;-66
2024/01/07 09:59:28;;;;;;;15.00;14.40;;;6.20;99.90;;;;;;5110525;27;20194;-67
2024/01/07 10:01:56;;;;;;;13.80;13.30;;;6.20;99.90;;;;;;5110398;27;20597;-64
2024/01/07 10:04:23;;;;;;;13.67;13.17;;;6.20;99.90;;;;;;5108361;28;20790;-64
2024/01/07 10:06:50;;;;;;;13.82;13.32;;;6.20;99.90;;;;;;5109567;27;20195;-65
2024/01/07 10:09:19;;;;;;;14.35;13.85;;;6.30;99.90;;;;;;5103020;27;20202;-63
2024/01/07 10:11:45;;;;;;;13.27;12.77;;;6.30;99.90;;;;;;5106705;27;20219;-65
2024/01/07 10:14:13;;;;;;;12.48;12.02;;;6.30;99.90;;;;;;5110164;27;20375;-65
2024/01/07 10:16:40;;;;;;;13.43;12.93;;;6.40;99.90;;;;;;5113007;27;20222;-65
2024/01/07 10:19:08;;;;;;;13.13;12.63;;;6.40;99.90;;;;;;5113155;27;20205;-64
2024/01/07 10:21:35;;;;;;;12.50;12.02;;;6.40;99.90;;;;;;5114070;27;20206;-65
2024/01/07 10:24:09;;;;;;;12.20;11.80;;;6.40;99.90;;;;;;5115084;28;20261;-67
2024/01/07 10:26:38;;;;;;;11.97;11.57;;;6.50;99.90;;;;;;5113824;27;20320;-63
2024/01/07 10:29:04;;;;;;;12.57;12.07;;;6.50;99.90;;;;;;5114467;27;20220;-67
2024/01/07 10:31:32;;;;;;;12.80;12.30;;;6.50;99.90;;;;;;5115514;27;20198;-65
2024/01/07 10:33:59;;;;;;;12.57;12.07;;;6.60;99.90;;;;;;5107597;27;20233;-66
2024/01/07 10:36:26;;;;;;;12.23;11.80;;;6.70;99.90;;;;;;5110726;27;20234;-66
2024/01/07 10:38:53;;;;;;;11.77;11.37;;;6.70;99.90;;;;;;5108816;27;20225;-65
2024/01/07 10:41:20;;;;;;;12.30;11.80;;;6.70;99.90;;;;;;5110926;28;20308;-65
2024/01/07 10:43:49;;;;;;;11.77;11.37;;;6.70;99.90;;;;;;5111829;27;20221;-66
2024/01/07 10:46:17;;;;;;;12.20;11.70;;;6.80;99.90;;;;;;5098194;27;20695;-66
2024/01/07 10:48:54;;;;;;;12.30;11.80;;;6.70;99.90;;;;;;5111178;28;20205;-65
2024/01/07 10:51:22;;;;;;;12.63;12.13;;;6.60;99.90;;;;;;5106670;28;20201;-65
2024/01/07 10:53:54;;;;;;;12.70;12.20;;;6.60;99.90;;;;;;5107758;28;20738;-65
2024/01/07 10:56:24;;;;;;;12.20;11.80;;;6.60;99.90;;;;;;5108902;28;20259;-67
2024/01/07 10:58:53;;;;;;;12.07;11.67;;;6.60;99.90;;;;;;5114074;27;20202;-65
2024/01/07 11:01:21;;;;;;;12.70;12.20;;;6.70;99.90;;;;;;5107437;28;20302;-65
2024/01/07 11:03:57;;;;;;;12.50;12.00;;;6.70;99.90;;;;;;5110540;28;20226;-65
2024/01/07 11:06:32;;;;;;;12.20;11.80;;;6.60;99.90;;;;;;5109472;28;20200;-66
2024/01/07 11:09:07;;;;;;;13.00;12.50;;;6.70;99.90;;;;;;5107137;28;20201;-65
2024/01/07 11:11:41;;;;;;;12.97;12.47;;;6.70;99.90;;;;;;5110972;28;20201;-66
2024/01/07 11:14:39;;;;;;;12.70;12.20;;;6.80;99.90;;;;;;5110297;28;20201;-64
2024/01/07 11:17:06;;;;;;;12.87;12.37;;;6.80;99.90;;;;;;5113189;28;20221;-65
2024/01/07 11:19:32;;;;;;;12.93;12.43;;;6.90;99.90;;;;;;5110479;28;20201;-64
2024/01/07 11:22:27;;;;;;;12.53;12.03;;;7.00;99.90;;;;;;5109587;28;20896;-65
2024/01/07 11:24:55;;;;;;;12.23;11.83;;;7.00;99.90;;;;;;5108926;28;20205;-64
2024/01/07 11:27:22;;;;;;;15.57;14.97;;;7.00;99.90;;;;;;5113650;28;20201;-64
2024/01/07 11:29:56;;;;;;;16.40;15.80;;;6.90;99.90;;;;;;5112493;27;20219;-65
2024/01/07 11:32:24;;;;;;;13.47;12.97;;;6.80;99.90;;;;;;5113501;28;20221;-64
2024/01/07 11:34:53;;;;;;;15.87;15.27;;;6.80;99.90;;;;;;5106679;28;20249;-64
2024/01/07 11:37:20;;;;;;;17.93;17.23;;;6.70;99.90;;;;;;5107936;28;20232;-64
2024/01/07 11:39:49;;;;;;;16.33;15.73;;;6.60;99.90;;;;;;5106719;28;20649;-64
2024/01/07 11:42:16;;;;;;;16.53;15.93;;;6.60;99.90;;;;;;5111657;28;20549;-66
2024/01/07 11:44:49;;;;;;;17.33;16.63;;;6.60;99.90;;;;;;5106167;28;20206;-64
2024/01/07 11:47:18;;;;;;;19.87;19.07;;;6.50;99.90;;;;;;5123236;28;20207;-64
2024/01/07 11:49:45;;;;;;;16.10;15.50;;;6.60;99.90;;;;;;5115929;28;20211;-63
2024/01/07 11:52:12;;;;;;;18.07;17.37;;;6.60;99.90;;;;;;5114821;28;20237;-66
2024/01/07 11:54:39;;;;;;;19.10;18.33;;;6.50;99.90;;;;;;5107638;28;20488;-65
2024/01/07 11:57:05;;;;;;;16.80;16.10;;;6.40;99.90;;;;;;5112235;27;20210;-64
2024/01/07 11:59:32;;;;;;;16.70;16.03;;;6.40;99.90;;;;;;5120778;27;20198;-67
2024/01/07 12:02:00;;;;;;;16.17;15.47;;;6.40;99.90;;;;;;5125450;27;20695;-65
2024/01/07 12:04:29;;;;;;;16.20;15.50;;;6.50;99.90;;;;;;5126291;27;20198;-65
2024/01/07 12:06:57;;;;;;;15.87;15.27;;;6.40;99.90;;;;;;5125348;27;20204;-65
2024/01/07 12:09:23;;;;;;;13.25;12.75;;;6.40;99.90;;;;;;5129066;27;20314;-66
2024/01/07 12:11:50;;;;;;;12.53;12.03;;;6.40;99.90;;;;;;5118519;27;20226;-64
2024/01/07 12:14:17;;;;;;;12.52;12.02;;;6.50;99.90;;;;;;5122728;27;20209;-65
2024/01/07 12:16:45;;;;;;;12.63;12.13;;;6.60;99.90;;;;;;5127145;27;20218;-65
2024/01/07 12:19:11;;;;;;;11.90;11.50;;;6.60;99.90;;;;;;5119999;27;20206;-65
2024/01/07 12:21:40;;;;;;;12.77;12.27;;;6.70;99.90;;;;;;5109097;28;20202;-66
2024/01/07 12:24:07;;;;;;;11.97;11.57;;;6.70;99.90;;;;;;5114201;27;20591;-65
2024/01/07 12:26:34;;;;;;;12.40;11.90;;;6.60;99.90;;;;;;5115988;27;20559;-64
2024/01/07 12:29:03;;;;;;;12.37;11.87;;;6.50;99.90;;;;;;5114312;27;20684;-64
2024/01/07 12:31:31;;;;;;;11.47;11.07;;;6.50;99.90;;;;;;5104206;27;20244;-64
2024/01/07 12:33:58;;;;;;;12.37;11.87;;;6.50;99.90;;;;;;5108891;28;20206;-64
2024/01/07 12:36:25;;;;;;;11.60;11.20;;;6.50;99.90;;;;;;5113448;28;20226;-65